KEVV/EVV METAR and TAF weather

Enter ICAO airport designator
Station Type Date Time Source
KEVV METAR 2019/12/13 16:54 UTC NOAA

KEVV 131654Z 16003KT 10SM FEW100 07/02 A3000 RMK AO2 SLP160 T00720017


Station Type Date Time Source
KEVV Decoded METAR 2019/12/13 16:54 UTC NOAA

EVANSVILLE REGIONAL, IN, United States (KEVV) 38-02N 087-32W 117M
Dec 13, 2019 - 11:54 AM EST / 2019.12.13 1654 UTC
Wind: from the SSE (160 degrees) at 3 MPH (3 KT):0
Visibility: 10 mile(s):0
Sky conditions: mostly clear
Temperature: 45.0 F (7.2 C)
Dew Point: 35.1 F (1.7 C)
Relative Humidity: 68%
Pressure (altimeter): 30 in. Hg (1015 hPa)
ob: KEVV 131654Z 16003KT 10SM FEW100 07/02 A3000 RMK AO2 SLP160 T00720017
cycle: 17

Station Type Date Time Source
KEVV TAF 2019/12/13 12:42 UTC NOAA

TAF KEVV 131140Z 1312/1412 16003KT P6SM OVC025
FM131600 15004KT P6SM OVC015
FM132200 VRB02KT 6SM BR OVC009

Example: see airport list